Ehrenfeld, Pennsylvania
Current Conditions -  °F | °C
As of 8:54 PM on Friday 28 Nov 2014 (Local Time) from KJST Reporting Station
Broken Clouds Broken Clouds  
Wind Chill: 10°   Ceiling: 2300
Heat Index: 19°   Visibility: 10mi
Dew Point: 12°   Wind: 7mph
Humidity: 74%   Direction: 230°SW
Pressure: 30.14"   Gusts: NA
Location:  40.3793°N, 78.7888°W
Report Text: KJST 290154Z AUTO 23006KT 10SM BKN023 M07/M11 A3014 RMK AO2 SLP243 T10721111
Loading
Personal Weather Stations






























Interactive Weather Map New forecast layout! Learn more

10-Day Weather Forecast

Advertisements
Track Severe Weather on mobile